createdAt,value
2022-08-26T00:01:33.812Z,52.65
2022-08-26T00:05:36.708Z,52.43
2022-08-26T00:09:40.085Z,52.33
2022-08-26T00:13:44.375Z,52.51
2022-08-26T00:17:51.607Z,52.23
2022-08-26T00:21:53.326Z,52.62
2022-08-26T00:25:54.828Z,52.54
2022-08-26T00:29:58.415Z,52.72
2022-08-26T00:33:59.964Z,53.41
2022-08-26T00:38:02.355Z,53.45
2022-08-26T00:42:04.471Z,53.71
2022-08-26T00:46:14.492Z,54.47
2022-08-26T00:50:21.832Z,54.48
2022-08-26T00:54:26.940Z,54.61
2022-08-26T00:58:31.316Z,55.22
2022-08-26T01:02:32.878Z,55.07
2022-08-26T01:06:34.696Z,55.60
2022-08-26T01:10:37.312Z,55.34
2022-08-26T01:14:40.802Z,55.37
2022-08-26T01:18:43.524Z,55.27
2022-08-26T01:23:05.678Z,55.06
2022-08-26T01:27:12.451Z,55.07
2022-08-26T01:31:17.639Z,55.23
2022-08-26T01:35:19.652Z,55.59
2022-08-26T01:39:21.267Z,55.72
2022-08-26T01:43:25.172Z,55.41
2022-08-26T01:47:30.098Z,55.77
2022-08-26T01:51:34.199Z,55.81
2022-08-26T01:55:40.961Z,56.55
2022-08-26T01:59:43.059Z,56.23
2022-08-26T02:03:54.540Z,56.94
2022-08-26T02:07:56.391Z,57.00
2022-08-26T02:12:01.540Z,56.91
2022-08-26T02:16:03.955Z,56.92
2022-08-26T02:20:06.839Z,57.24
2022-08-26T02:24:16.178Z,57.23
2022-08-26T02:28:19.719Z,57.17
2022-08-26T02:32:21.373Z,57.20
2022-08-26T02:36:28.570Z,57.66
2022-08-26T02:40:31.976Z,57.66
2022-08-26T02:44:33.609Z,58.11
2022-08-26T02:48:35.137Z,57.90
2022-08-26T02:52:37.544Z,58.22
2022-08-26T02:56:39.198Z,58.23
2022-08-26T03:00:52.737Z,58.25
2022-08-26T03:04:57.964Z,58.87
2022-08-26T03:09:04.081Z,58.96
2022-08-26T03:13:05.719Z,58.68
2022-08-26T03:17:07.384Z,59.32
2022-08-26T03:21:13.234Z,59.28
2022-08-26T03:25:16.614Z,60.10
2022-08-26T03:29:36.824Z,60.58
2022-08-26T03:33:38.304Z,60.39
2022-08-26T03:37:39.864Z,60.72
2022-08-26T03:41:41.587Z,61.29
2022-08-26T03:45:43.285Z,61.34
2022-08-26T03:49:47.627Z,61.88
2022-08-26T03:53:49.447Z,62.18
2022-08-26T03:57:51.306Z,62.29
2022-08-26T04:01:52.821Z,62.30
2022-08-26T04:05:54.336Z,62.96
2022-08-26T04:09:59.080Z,62.72
2022-08-26T04:14:01.755Z,62.58
2022-08-26T04:18:03.313Z,62.74
2022-08-26T04:22:04.921Z,62.89
2022-08-26T04:26:07.232Z,63.28
2022-08-26T04:30:10.486Z,63.30
2022-08-26T04:34:12.054Z,63.95
2022-08-26T04:38:16.291Z,63.85
2022-08-26T04:42:21.088Z,63.77
2022-08-26T04:46:28.016Z,64.05
2022-08-26T04:50:29.636Z,63.65
2022-08-26T04:54:31.358Z,63.91
2022-08-26T04:58:32.900Z,63.84
2022-08-26T05:02:34.465Z,64.24
2022-08-26T05:06:37.002Z,64.88
2022-08-26T05:10:39.580Z,64.26
2022-08-26T05:14:42.061Z,64.48
2022-08-26T05:18:45.740Z,64.37
2022-08-26T05:22:47.926Z,64.60
2022-08-26T05:26:49.952Z,64.58
2022-08-26T05:30:51.896Z,65.21
2022-08-26T05:34:54.348Z,65.39
2022-08-26T05:38:57.866Z,65.58
2022-08-26T05:43:00.309Z,65.51
2022-08-26T05:47:04.173Z,66.02
2022-08-26T05:51:07.057Z,66.85
2022-08-26T05:55:08.627Z,66.54
2022-08-26T05:59:14.282Z,66.34
2022-08-26T06:03:16.182Z,66.79
2022-08-26T06:07:17.760Z,67.17
2022-08-26T06:11:25.394Z,67.63
2022-08-26T06:15:27.591Z,67.20
2022-08-26T06:19:33.123Z,67.29
2022-08-26T06:23:54.378Z,66.36
2022-08-26T06:27:55.905Z,65.88
2022-08-26T06:31:58.088Z,65.46
2022-08-26T06:36:01.209Z,65.26
2022-08-26T06:40:03.055Z,65.17
2022-08-26T06:44:06.828Z,65.71
2022-08-26T06:48:08.326Z,69.71
2022-08-26T06:52:11.346Z,73.04
2022-08-26T06:56:13.829Z,75.48
2022-08-26T07:00:15.859Z,77.18
2022-08-26T07:04:23.109Z,77.96
2022-08-26T07:08:24.987Z,78.60
2022-08-26T07:12:26.607Z,79.02
2022-08-26T07:16:28.890Z,79.11
2022-08-26T07:20:31.453Z,79.74
2022-08-26T07:24:35.403Z,79.63
2022-08-26T07:28:36.993Z,79.37
2022-08-26T07:32:38.492Z,77.44
2022-08-26T07:36:40.027Z,76.10
2022-08-26T07:40:41.610Z,74.92
2022-08-26T07:44:43.726Z,74.16
2022-08-26T07:48:46.440Z,72.99
2022-08-26T07:52:48.459Z,72.06
2022-08-26T07:56:50.367Z,71.71
2022-08-26T08:00:53.485Z,72.32
2022-08-26T08:04:55.190Z,72.73
2022-08-26T08:08:57.282Z,72.70
2022-08-26T08:12:58.887Z,72.42
2022-08-26T08:17:00.506Z,71.32
2022-08-26T08:21:21.283Z,71.21
2022-08-26T08:25:38.904Z,71.52
2022-08-26T08:29:41.980Z,71.82
2022-08-26T08:33:43.461Z,72.28
2022-08-26T08:37:45.238Z,72.61
2022-08-26T08:42:06.591Z,74.23
2022-08-26T08:46:11.032Z,74.85
2022-08-26T08:50:24.529Z,75.60
2022-08-26T08:54:29.087Z,75.96
2022-08-26T08:58:49.719Z,75.86
2022-08-26T09:02:59.810Z,76.80
2022-08-26T09:07:02.593Z,75.91
2022-08-26T09:11:04.464Z,74.06
2022-08-26T09:15:09.187Z,74.61
2022-08-26T09:19:14.597Z,75.52
2022-08-26T09:23:20.675Z,76.58
2022-08-26T09:27:36.042Z,76.25
2022-08-26T09:31:39.251Z,76.17
2022-08-26T09:35:42.978Z,76.87
2022-08-26T09:39:44.535Z,75.81
2022-08-26T09:44:05.961Z,74.99
2022-08-26T09:48:08.711Z,75.23
2022-08-26T09:52:13.665Z,73.80
2022-08-26T09:56:16.952Z,73.26
2022-08-26T10:00:27.224Z,73.13
2022-08-26T10:04:30.894Z,73.13
2022-08-26T10:08:34.490Z,77.70
2022-08-26T10:12:38.556Z,82.09
2022-08-26T10:16:48.798Z,88.49
2022-08-26T10:20:56.189Z,88.89
2022-08-26T10:24:59.216Z,91.63
2022-08-26T10:29:07.285Z,92.63
2022-08-26T10:33:10.739Z,94.70
2022-08-26T10:37:20.635Z,95.06
2022-08-26T10:41:25.803Z,95.16
2022-08-26T10:45:28.873Z,97.64
2022-08-26T10:49:30.415Z,96.50
2022-08-26T10:53:40.007Z,97.01
2022-08-26T10:57:58.038Z,97.99
2022-08-26T11:02:21.554Z,98.66
2022-08-26T11:06:27.983Z,99.90
2022-08-26T11:10:38.596Z,99.10
2022-08-26T11:14:53.352Z,98.73
2022-08-26T11:18:56.086Z,100.00
2022-08-26T11:23:18.076Z,100.00
2022-08-26T11:27:25.916Z,99.97
2022-08-26T11:31:27.498Z,100.00
2022-08-26T11:35:37.308Z,99.27
2022-08-26T11:39:54.651Z,97.96
2022-08-26T11:43:57.674Z,96.69
2022-08-26T11:47:59.177Z,93.54
2022-08-26T11:52:10.043Z,90.68
2022-08-26T11:56:31.542Z,86.16
2022-08-26T12:00:39.563Z,82.81
2022-08-26T12:04:49.529Z,82.73
2022-08-26T12:08:52.093Z,79.11
2022-08-26T12:12:55.152Z,78.07
2022-08-26T12:17:08.308Z,77.63
2022-08-26T12:21:13.426Z,75.38
2022-08-26T12:25:21.824Z,73.52
2022-08-26T12:29:27.089Z,69.35
2022-08-26T12:33:29.608Z,69.87
2022-08-26T12:37:34.232Z,67.31
2022-08-26T12:41:38.632Z,65.69
2022-08-26T12:45:43.124Z,62.27
2022-08-26T12:49:44.925Z,58.95
2022-08-26T12:53:46.493Z,58.34
2022-08-26T12:58:10.243Z,57.31
2022-08-26T13:02:33.170Z,54.09
2022-08-26T13:06:35.119Z,48.72
2022-08-26T13:10:37.626Z,45.98
2022-08-26T13:14:40.764Z,42.66
2022-08-26T13:18:42.576Z,38.43
2022-08-26T13:22:58.901Z,38.62
2022-08-26T13:27:01.847Z,39.65
2022-08-26T13:31:04.730Z,38.15
2022-08-26T13:35:07.345Z,36.91
2022-08-26T13:39:08.934Z,37.71
2022-08-26T13:43:11.390Z,38.23
2022-08-26T13:47:13.177Z,36.90
2022-08-26T13:51:14.728Z,34.88
2022-08-26T13:55:16.267Z,32.02
2022-08-26T13:59:17.767Z,32.63
2022-08-26T14:03:19.415Z,32.39
2022-08-26T14:07:21.695Z,32.87
2022-08-26T14:11:25.002Z,32.96
2022-08-26T14:15:26.562Z,31.65
2022-08-26T14:19:31.293Z,33.37
2022-08-26T14:23:32.964Z,34.25
2022-08-26T14:27:34.459Z,35.28
2022-08-26T14:31:36.549Z,35.56
2022-08-26T14:35:38.115Z,35.70
2022-08-26T14:39:39.603Z,36.80
2022-08-26T14:43:43.426Z,37.42
2022-08-26T14:47:45.387Z,38.17
2022-08-26T14:51:47.507Z,38.48
2022-08-26T14:55:50.525Z,37.82
2022-08-26T14:59:52.276Z,36.95
2022-08-26T15:03:53.985Z,37.11
2022-08-26T15:07:55.482Z,36.43
2022-08-26T15:11:57.380Z,35.92
2022-08-26T15:15:58.970Z,35.35
2022-08-26T15:20:01.247Z,35.34
2022-08-26T15:24:02.888Z,36.33
2022-08-26T15:28:04.548Z,37.41
2022-08-26T15:32:06.055Z,38.43
2022-08-26T15:36:08.241Z,39.66
2022-08-26T15:40:11.099Z,40.30
2022-08-26T15:44:14.043Z,40.67
2022-08-26T15:48:16.261Z,41.34
2022-08-26T15:52:19.078Z,42.84
2022-08-26T15:56:20.725Z,42.85
2022-08-26T16:00:22.252Z,44.42
2022-08-26T16:04:24.164Z,44.85
2022-08-26T16:08:25.714Z,45.77
2022-08-26T16:12:31.559Z,44.81
2022-08-26T16:16:33.287Z,44.20
2022-08-26T16:20:36.191Z,44.15
2022-08-26T16:24:37.870Z,44.54
2022-08-26T16:28:40.661Z,44.32
2022-08-26T16:32:42.139Z,45.19
2022-08-26T16:36:43.733Z,45.94
2022-08-26T16:40:48.120Z,47.17
2022-08-26T16:44:50.855Z,47.58
2022-08-26T16:48:53.536Z,47.82
2022-08-26T16:52:55.791Z,48.05
2022-08-26T16:56:57.408Z,48.55
2022-08-26T17:00:58.932Z,48.25
2022-08-26T17:05:00.437Z,48.25
2022-08-26T17:09:02.351Z,50.07
2022-08-26T17:13:03.856Z,50.40
2022-08-26T17:17:06.034Z,50.72
2022-08-26T17:21:09.467Z,50.88
2022-08-26T17:25:16.967Z,52.74
2022-08-26T17:29:18.450Z,52.72
2022-08-26T17:33:24.442Z,52.61
2022-08-26T17:37:26.379Z,53.10
2022-08-26T17:41:27.949Z,53.89
2022-08-26T17:45:29.453Z,53.87
2022-08-26T17:49:31.288Z,54.46
2022-08-26T17:53:34.244Z,54.88
2022-08-26T17:57:40.937Z,55.13
2022-08-26T18:01:43.899Z,55.54
2022-08-26T18:05:49.541Z,55.92
2022-08-26T18:09:51.003Z,56.55
2022-08-26T18:13:53.227Z,56.45
2022-08-26T18:17:54.687Z,57.46
2022-08-26T18:21:56.212Z,59.80
2022-08-26T18:25:57.697Z,59.04
2022-08-26T18:29:59.229Z,59.77
2022-08-26T18:34:01.732Z,60.33
2022-08-26T18:38:11.398Z,62.46
2022-08-26T18:42:13.274Z,64.50
2022-08-26T18:46:14.900Z,66.74
2022-08-26T18:50:16.560Z,68.98
2022-08-26T18:58:40.198Z,72.41
2022-08-26T19:02:41.878Z,76.46
2022-08-26T19:06:50.757Z,75.42
2022-08-26T19:10:52.275Z,77.12
2022-08-26T19:14:54.521Z,75.97
2022-08-26T19:18:56.302Z,75.51
2022-08-26T19:23:02.658Z,76.30
2022-08-26T19:27:14.867Z,74.88
2022-08-26T19:31:16.933Z,76.50
2022-08-26T19:35:18.516Z,77.19
2022-08-26T19:39:20.982Z,77.23
2022-08-26T19:43:23.060Z,77.96
2022-08-26T19:47:25.312Z,77.45
2022-08-26T19:51:28.703Z,77.61
2022-08-26T19:55:30.405Z,77.17
2022-08-26T19:59:33.389Z,78.51
2022-08-26T20:03:35.696Z,78.22
2022-08-26T20:07:49.812Z,77.96
2022-08-26T20:11:52.805Z,78.92
2022-08-26T20:15:58.208Z,78.89
2022-08-26T20:20:30.066Z,79.82
2022-08-26T20:24:38.031Z,80.27
2022-08-26T20:28:44.234Z,80.23
2022-08-26T20:32:54.729Z,79.96
2022-08-26T20:41:54.142Z,80.03
2022-08-26T20:45:56.826Z,79.80
2022-08-26T21:19:48.805Z,82.05
2022-08-26T21:33:51.483Z,82.43
2022-08-26T21:38:24.681Z,82.98
2022-08-26T21:47:53.108Z,82.63
2022-08-26T21:52:41.268Z,82.73
2022-08-26T22:02:01.162Z,83.45
2022-08-26T22:06:17.578Z,83.32
2022-08-26T22:10:24.608Z,82.56
2022-08-26T22:14:37.654Z,83.28
2022-08-26T22:18:46.404Z,83.47
2022-08-26T22:23:16.172Z,83.24
2022-08-26T22:27:24.610Z,82.55
2022-08-26T22:31:37.050Z,82.28
2022-08-26T22:35:47.022Z,81.94
2022-08-26T22:39:49.593Z,81.78
2022-08-26T22:43:54.581Z,81.01
2022-08-26T22:47:56.698Z,80.96
2022-08-26T22:52:04.817Z,80.46
2022-08-26T22:56:07.013Z,80.39
2022-08-26T23:00:11.272Z,80.06
2022-08-26T23:04:16.294Z,80.71
2022-08-26T23:08:21.089Z,80.01
2022-08-26T23:12:25.938Z,79.82
2022-08-26T23:16:28.194Z,79.65
2022-08-26T23:20:39.893Z,79.76
2022-08-26T23:24:41.596Z,79.64
2022-08-26T23:28:43.176Z,80.00
2022-08-26T23:32:45.238Z,80.85
2022-08-26T23:36:47.007Z,80.70
2022-08-26T23:40:48.659Z,80.44
2022-08-26T23:44:50.961Z,80.77
2022-08-26T23:48:52.515Z,80.73
2022-08-26T23:53:06.082Z,81.11
2022-08-26T23:57:09.416Z,81.54
